sensor_id;sensor_type;location;lat;lon;timestamp;P1;durP1;ratioP1;P2;durP2;ratioP2
6985;SDS011;3533;51.246;6.850;2023-03-16T00:01:37;1.70;;;1.40;;
6985;SDS011;3533;51.246;6.850;2023-03-16T00:04:03;1.40;;;1.30;;
6985;SDS011;3533;51.246;6.850;2023-03-16T00:06:28;1.80;;;1.70;;
6985;SDS011;3533;51.246;6.850;2023-03-16T00:08:54;6.83;;;1.90;;
6985;SDS011;3533;51.246;6.850;2023-03-16T00:11:22;1.10;;;1.00;;
6985;SDS011;3533;51.246;6.850;2023-03-16T00:13:49;2.27;;;1.20;;
6985;SDS011;3533;51.246;6.850;2023-03-16T00:16:14;1.40;;;1.30;;
6985;SDS011;3533;51.246;6.850;2023-03-16T00:18:41;1.70;;;1.43;;
6985;SDS011;3533;51.246;6.850;2023-03-16T00:21:06;1.30;;;1.20;;
6985;SDS011;3533;51.246;6.850;2023-03-16T00:23:32;1.47;;;1.37;;
6985;SDS011;3533;51.246;6.850;2023-03-16T00:26:00;1.30;;;1.20;;
6985;SDS011;3533;51.246;6.850;2023-03-16T00:28:28;1.63;;;1.13;;
6985;SDS011;3533;51.246;6.850;2023-03-16T00:31:02;1.30;;;1.20;;
6985;SDS011;3533;51.246;6.850;2023-03-16T00:33:29;1.50;;;1.40;;
6985;SDS011;3533;51.246;6.850;2023-03-16T00:35:58;1.40;;;1.30;;
6985;SDS011;3533;51.246;6.850;2023-03-16T00:38:29;1.50;;;1.40;;
6985;SDS011;3533;51.246;6.850;2023-03-16T00:40:56;2.10;;;2.00;;
6985;SDS011;3533;51.246;6.850;2023-03-16T00:43:22;1.30;;;1.20;;
6985;SDS011;3533;51.246;6.850;2023-03-16T00:45:51;1.40;;;1.30;;
6985;SDS011;3533;51.246;6.850;2023-03-16T00:48:22;1.40;;;1.30;;
6985;SDS011;3533;51.246;6.850;2023-03-16T00:50:48;1.20;;;1.10;;
6985;SDS011;3533;51.246;6.850;2023-03-16T00:53:13;1.80;;;1.50;;
6985;SDS011;3533;51.246;6.850;2023-03-16T00:55:39;1.50;;;1.40;;
6985;SDS011;3533;51.246;6.850;2023-03-16T00:58:05;1.40;;;1.30;;
6985;SDS011;3533;51.246;6.850;2023-03-16T01:00:31;1.33;;;1.23;;
6985;SDS011;3533;51.246;6.850;2023-03-16T01:02:56;1.40;;;1.30;;
6985;SDS011;3533;51.246;6.850;2023-03-16T01:05:22;1.67;;;1.40;;
6985;SDS011;3533;51.246;6.850;2023-03-16T01:07:47;1.30;;;1.20;;
6985;SDS011;3533;51.246;6.850;2023-03-16T01:10:13;1.20;;;1.10;;
6985;SDS011;3533;51.246;6.850;2023-03-16T01:12:38;1.50;;;1.40;;
6985;SDS011;3533;51.246;6.850;2023-03-16T01:15:04;1.20;;;1.10;;
6985;SDS011;3533;51.246;6.850;2023-03-16T01:17:30;1.33;;;1.20;;
6985;SDS011;3533;51.246;6.850;2023-03-16T01:19:58;2.30;;;1.20;;
6985;SDS011;3533;51.246;6.850;2023-03-16T01:22:24;1.53;;;1.43;;
6985;SDS011;3533;51.246;6.850;2023-03-16T01:24:50;1.20;;;1.10;;
6985;SDS011;3533;51.246;6.850;2023-03-16T01:27:16;1.40;;;1.30;;
6985;SDS011;3533;51.246;6.850;2023-03-16T01:29:41;3.30;;;1.23;;
6985;SDS011;3533;51.246;6.850;2023-03-16T01:32:10;1.30;;;1.20;;
6985;SDS011;3533;51.246;6.850;2023-03-16T01:34:36;1.20;;;1.10;;
6985;SDS011;3533;51.246;6.850;2023-03-16T01:37:02;1.30;;;1.20;;
6985;SDS011;3533;51.246;6.850;2023-03-16T01:39:27;1.77;;;1.27;;
6985;SDS011;3533;51.246;6.850;2023-03-16T01:41:53;1.60;;;1.50;;
6985;SDS011;3533;51.246;6.850;2023-03-16T01:44:20;2.27;;;1.50;;
6985;SDS011;3533;51.246;6.850;2023-03-16T01:46:48;3.43;;;1.33;;
6985;SDS011;3533;51.246;6.850;2023-03-16T01:49:25;1.40;;;1.30;;
6985;SDS011;3533;51.246;6.850;2023-03-16T01:52:05;1.83;;;1.20;;
6985;SDS011;3533;51.246;6.850;2023-03-16T01:54:41;1.40;;;1.30;;
6985;SDS011;3533;51.246;6.850;2023-03-16T01:57:18;2.27;;;1.90;;
6985;SDS011;3533;51.246;6.850;2023-03-16T02:02:34;1.20;;;1.10;;
6985;SDS011;3533;51.246;6.850;2023-03-16T02:05:09;1.47;;;1.37;;
6985;SDS011;3533;51.246;6.850;2023-03-16T02:07:45;1.60;;;1.50;;
6985;SDS011;3533;51.246;6.850;2023-03-16T02:10:14;2.07;;;1.60;;
6985;SDS011;3533;51.246;6.850;2023-03-16T02:12:42;1.60;;;1.30;;
6985;SDS011;3533;51.246;6.850;2023-03-16T02:15:09;1.70;;;1.60;;
6985;SDS011;3533;51.246;6.850;2023-03-16T02:17:36;1.37;;;1.27;;
6985;SDS011;3533;51.246;6.850;2023-03-16T02:22:42;2.10;;;1.40;;
6985;SDS011;3533;51.246;6.850;2023-03-16T02:25:12;1.50;;;1.40;;
6985;SDS011;3533;51.246;6.850;2023-03-16T02:30:24;1.50;;;1.27;;
6985;SDS011;3533;51.246;6.850;2023-03-16T02:32:50;1.53;;;1.43;;
6985;SDS011;3533;51.246;6.850;2023-03-16T02:35:18;1.50;;;1.10;;
6985;SDS011;3533;51.246;6.850;2023-03-16T02:37:43;2.80;;;1.60;;
6985;SDS011;3533;51.246;6.850;2023-03-16T02:42:46;1.53;;;1.43;;
6985;SDS011;3533;51.246;6.850;2023-03-16T02:45:54;1.40;;;1.30;;
6985;SDS011;3533;51.246;6.850;2023-03-16T02:48:26;1.50;;;1.40;;
6985;SDS011;3533;51.246;6.850;2023-03-16T02:50:57;1.23;;;1.13;;
6985;SDS011;3533;51.246;6.850;2023-03-16T02:53:22;1.60;;;1.50;;
6985;SDS011;3533;51.246;6.850;2023-03-16T02:55:48;1.70;;;1.53;;
6985;SDS011;3533;51.246;6.850;2023-03-16T02:58:15;1.30;;;1.20;;
6985;SDS011;3533;51.246;6.850;2023-03-16T03:00:41;1.73;;;1.37;;
6985;SDS011;3533;51.246;6.850;2023-03-16T03:03:07;1.30;;;1.20;;
6985;SDS011;3533;51.246;6.850;2023-03-16T03:05:33;1.40;;;1.30;;
6985;SDS011;3533;51.246;6.850;2023-03-16T03:08:00;1.43;;;1.33;;
6985;SDS011;3533;51.246;6.850;2023-03-16T03:10:25;1.40;;;1.30;;
6985;SDS011;3533;51.246;6.850;2023-03-16T03:12:51;2.10;;;2.00;;
6985;SDS011;3533;51.246;6.850;2023-03-16T03:15:16;2.07;;;1.50;;
6985;SDS011;3533;51.246;6.850;2023-03-16T03:17:43;1.43;;;1.33;;
6985;SDS011;3533;51.246;6.850;2023-03-16T03:20:09;1.30;;;1.20;;
6985;SDS011;3533;51.246;6.850;2023-03-16T03:22:43;1.30;;;1.20;;
6985;SDS011;3533;51.246;6.850;2023-03-16T03:25:11;1.70;;;1.60;;
6985;SDS011;3533;51.246;6.850;2023-03-16T03:27:38;1.33;;;1.23;;
6985;SDS011;3533;51.246;6.850;2023-03-16T03:30:08;1.53;;;1.43;;
6985;SDS011;3533;51.246;6.850;2023-03-16T03:32:36;1.50;;;1.40;;
6985;SDS011;3533;51.246;6.850;2023-03-16T03:35:03;1.50;;;1.40;;
6985;SDS011;3533;51.246;6.850;2023-03-16T03:37:29;1.30;;;1.20;;
6985;SDS011;3533;51.246;6.850;2023-03-16T03:39:54;1.63;;;1.53;;
6985;SDS011;3533;51.246;6.850;2023-03-16T03:42:20;1.40;;;1.30;;
6985;SDS011;3533;51.246;6.850;2023-03-16T03:44:47;1.40;;;1.30;;
6985;SDS011;3533;51.246;6.850;2023-03-16T03:47:15;1.40;;;1.30;;
6985;SDS011;3533;51.246;6.850;2023-03-16T03:49:40;1.37;;;1.27;;
6985;SDS011;3533;51.246;6.850;2023-03-16T03:52:06;1.63;;;1.53;;
6985;SDS011;3533;51.246;6.850;2023-03-16T03:54:31;1.37;;;1.27;;
6985;SDS011;3533;51.246;6.850;2023-03-16T03:56:57;1.70;;;1.60;;
6985;SDS011;3533;51.246;6.850;2023-03-16T03:59:23;1.53;;;1.43;;
6985;SDS011;3533;51.246;6.850;2023-03-16T04:01:48;1.40;;;1.30;;
6985;SDS011;3533;51.246;6.850;2023-03-16T04:04:14;1.60;;;1.50;;
6985;SDS011;3533;51.246;6.850;2023-03-16T04:06:40;1.33;;;1.20;;
6985;SDS011;3533;51.246;6.850;2023-03-16T04:09:06;1.47;;;1.37;;
6985;SDS011;3533;51.246;6.850;2023-03-16T04:11:32;1.40;;;1.30;;
6985;SDS011;3533;51.246;6.850;2023-03-16T04:13:58;1.67;;;1.13;;
6985;SDS011;3533;51.246;6.850;2023-03-16T04:16:23;1.40;;;1.30;;
6985;SDS011;3533;51.246;6.850;2023-03-16T04:18:51;1.70;;;1.60;;
6985;SDS011;3533;51.246;6.850;2023-03-16T04:21:19;1.27;;;1.17;;
6985;SDS011;3533;51.246;6.850;2023-03-16T04:23:45;1.60;;;1.47;;
6985;SDS011;3533;51.246;6.850;2023-03-16T04:26:11;1.47;;;1.37;;
6985;SDS011;3533;51.246;6.850;2023-03-16T04:28:37;1.50;;;1.40;;
6985;SDS011;3533;51.246;6.850;2023-03-16T04:31:04;1.20;;;1.10;;
6985;SDS011;3533;51.246;6.850;2023-03-16T04:33:35;1.77;;;1.30;;
6985;SDS011;3533;51.246;6.850;2023-03-16T04:36:02;1.17;;;1.07;;
6985;SDS011;3533;51.246;6.850;2023-03-16T04:38:29;1.30;;;1.20;;
6985;SDS011;3533;51.246;6.850;2023-03-16T04:40:58;1.50;;;1.40;;
6985;SDS011;3533;51.246;6.850;2023-03-16T04:43:24;1.37;;;1.27;;
6985;SDS011;3533;51.246;6.850;2023-03-16T04:45:49;1.37;;;1.27;;
6985;SDS011;3533;51.246;6.850;2023-03-16T04:48:15;1.50;;;1.40;;
6985;SDS011;3533;51.246;6.850;2023-03-16T04:50:41;1.47;;;1.37;;
6985;SDS011;3533;51.246;6.850;2023-03-16T04:53:06;1.23;;;1.13;;
6985;SDS011;3533;51.246;6.850;2023-03-16T04:55:32;1.43;;;1.33;;
6985;SDS011;3533;51.246;6.850;2023-03-16T04:57:58;1.40;;;1.30;;
6985;SDS011;3533;51.246;6.850;2023-03-16T05:00:23;2.07;;;1.57;;
6985;SDS011;3533;51.246;6.850;2023-03-16T05:02:49;1.60;;;1.50;;
6985;SDS011;3533;51.246;6.850;2023-03-16T05:05:19;1.53;;;1.43;;
6985;SDS011;3533;51.246;6.850;2023-03-16T05:07:45;1.30;;;1.20;;
6985;SDS011;3533;51.246;6.850;2023-03-16T05:10:12;1.50;;;1.40;;
6985;SDS011;3533;51.246;6.850;2023-03-16T05:12:38;1.33;;;1.23;;
6985;SDS011;3533;51.246;6.850;2023-03-16T05:15:04;1.37;;;1.27;;
6985;SDS011;3533;51.246;6.850;2023-03-16T05:17:31;1.30;;;1.20;;
6985;SDS011;3533;51.246;6.850;2023-03-16T05:19:57;1.50;;;1.40;;
6985;SDS011;3533;51.246;6.850;2023-03-16T05:22:22;1.43;;;1.33;;
6985;SDS011;3533;51.246;6.850;2023-03-16T05:24:48;1.50;;;1.33;;
6985;SDS011;3533;51.246;6.850;2023-03-16T05:27:14;1.50;;;1.40;;
6985;SDS011;3533;51.246;6.850;2023-03-16T05:29:39;1.43;;;1.33;;
6985;SDS011;3533;51.246;6.850;2023-03-16T05:32:09;1.30;;;1.20;;
6985;SDS011;3533;51.246;6.850;2023-03-16T05:34:36;1.10;;;1.00;;
6985;SDS011;3533;51.246;6.850;2023-03-16T05:37:01;1.50;;;1.40;;
6985;SDS011;3533;51.246;6.850;2023-03-16T05:39:27;1.70;;;1.60;;
6985;SDS011;3533;51.246;6.850;2023-03-16T05:41:55;1.33;;;1.23;;
6985;SDS011;3533;51.246;6.850;2023-03-16T05:44:21;1.30;;;1.20;;
6985;SDS011;3533;51.246;6.850;2023-03-16T05:46:47;1.30;;;1.20;;
6985;SDS011;3533;51.246;6.850;2023-03-16T05:49:13;1.50;;;1.40;;
6985;SDS011;3533;51.246;6.850;2023-03-16T05:51:39;1.27;;;1.17;;
6985;SDS011;3533;51.246;6.850;2023-03-16T05:54:05;1.33;;;1.23;;
6985;SDS011;3533;51.246;6.850;2023-03-16T05:56:31;1.40;;;1.30;;
6985;SDS011;3533;51.246;6.850;2023-03-16T05:58:56;1.40;;;1.30;;
6985;SDS011;3533;51.246;6.850;2023-03-16T06:01:22;1.20;;;1.10;;
6985;SDS011;3533;51.246;6.850;2023-03-16T06:03:48;1.37;;;1.27;;
6985;SDS011;3533;51.246;6.850;2023-03-16T06:06:15;1.50;;;1.40;;
6985;SDS011;3533;51.246;6.850;2023-03-16T06:08:41;1.40;;;1.30;;
6985;SDS011;3533;51.246;6.850;2023-03-16T06:11:07;1.30;;;1.20;;
6985;SDS011;3533;51.246;6.850;2023-03-16T06:13:33;1.30;;;1.20;;
6985;SDS011;3533;51.246;6.850;2023-03-16T06:15:59;1.40;;;1.30;;
6985;SDS011;3533;51.246;6.850;2023-03-16T06:18:25;1.83;;;1.73;;
6985;SDS011;3533;51.246;6.850;2023-03-16T06:20:51;1.40;;;1.30;;
6985;SDS011;3533;51.246;6.850;2023-03-16T06:23:16;1.77;;;1.50;;
6985;SDS011;3533;51.246;6.850;2023-03-16T06:25:45;1.30;;;1.20;;
6985;SDS011;3533;51.246;6.850;2023-03-16T06:28:11;2.70;;;1.60;;
6985;SDS011;3533;51.246;6.850;2023-03-16T06:30:38;1.40;;;1.30;;
6985;SDS011;3533;51.246;6.850;2023-03-16T06:33:04;1.77;;;1.30;;
6985;SDS011;3533;51.246;6.850;2023-03-16T06:35:29;1.30;;;1.20;;
6985;SDS011;3533;51.246;6.850;2023-03-16T06:37:55;1.40;;;1.30;;
6985;SDS011;3533;51.246;6.850;2023-03-16T06:40:20;1.10;;;1.00;;
6985;SDS011;3533;51.246;6.850;2023-03-16T06:42:46;1.50;;;1.40;;
6985;SDS011;3533;51.246;6.850;2023-03-16T06:45:11;1.30;;;1.20;;
6985;SDS011;3533;51.246;6.850;2023-03-16T06:47:37;1.50;;;1.40;;
6985;SDS011;3533;51.246;6.850;2023-03-16T06:50:03;1.63;;;1.50;;
6985;SDS011;3533;51.246;6.850;2023-03-16T06:52:29;1.20;;;1.10;;
6985;SDS011;3533;51.246;6.850;2023-03-16T06:54:55;1.20;;;1.10;;
6985;SDS011;3533;51.246;6.850;2023-03-16T06:57:22;1.33;;;1.23;;
6985;SDS011;3533;51.246;6.850;2023-03-16T06:59:48;1.33;;;1.23;;
6985;SDS011;3533;51.246;6.850;2023-03-16T07:02:13;1.47;;;1.37;;
6985;SDS011;3533;51.246;6.850;2023-03-16T07:04:40;2.70;;;1.43;;
6985;SDS011;3533;51.246;6.850;2023-03-16T07:07:07;1.47;;;1.37;;
6985;SDS011;3533;51.246;6.850;2023-03-16T07:09:33;1.30;;;1.20;;
6985;SDS011;3533;51.246;6.850;2023-03-16T07:11:59;1.53;;;1.43;;
6985;SDS011;3533;51.246;6.850;2023-03-16T07:14:24;1.67;;;1.30;;
6985;SDS011;3533;51.246;6.850;2023-03-16T07:16:50;2.60;;;2.20;;
6985;SDS011;3533;51.246;6.850;2023-03-16T07:19:16;1.50;;;1.40;;
6985;SDS011;3533;51.246;6.850;2023-03-16T07:21:42;1.30;;;1.20;;
6985;SDS011;3533;51.246;6.850;2023-03-16T07:24:08;1.47;;;1.37;;
6985;SDS011;3533;51.246;6.850;2023-03-16T07:26:35;1.43;;;1.33;;
6985;SDS011;3533;51.246;6.850;2023-03-16T07:29:01;1.30;;;1.20;;
6985;SDS011;3533;51.246;6.850;2023-03-16T07:31:29;1.40;;;1.30;;
6985;SDS011;3533;51.246;6.850;2023-03-16T07:33:54;1.97;;;1.10;;
6985;SDS011;3533;51.246;6.850;2023-03-16T07:36:21;1.90;;;1.23;;
6985;SDS011;3533;51.246;6.850;2023-03-16T07:38:47;1.47;;;1.20;;
6985;SDS011;3533;51.246;6.850;2023-03-16T07:41:12;1.30;;;1.20;;
6985;SDS011;3533;51.246;6.850;2023-03-16T07:43:38;1.97;;;1.50;;
6985;SDS011;3533;51.246;6.850;2023-03-16T07:46:03;1.63;;;1.53;;
6985;SDS011;3533;51.246;6.850;2023-03-16T07:48:30;2.67;;;1.40;;
6985;SDS011;3533;51.246;6.850;2023-03-16T07:50:56;2.20;;;1.40;;
6985;SDS011;3533;51.246;6.850;2023-03-16T07:53:22;4.60;;;1.20;;
6985;SDS011;3533;51.246;6.850;2023-03-16T07:55:48;1.63;;;1.20;;
6985;SDS011;3533;51.246;6.850;2023-03-16T07:58:13;2.50;;;1.03;;
6985;SDS011;3533;51.246;6.850;2023-03-16T08:00:39;1.37;;;1.27;;
6985;SDS011;3533;51.246;6.850;2023-03-16T08:03:06;2.60;;;1.20;;
6985;SDS011;3533;51.246;6.850;2023-03-16T08:05:32;1.40;;;1.30;;
6985;SDS011;3533;51.246;6.850;2023-03-16T08:07:58;1.40;;;1.30;;
6985;SDS011;3533;51.246;6.850;2023-03-16T08:10:25;1.30;;;1.20;;
6985;SDS011;3533;51.246;6.850;2023-03-16T08:12:51;1.20;;;1.10;;
6985;SDS011;3533;51.246;6.850;2023-03-16T08:15:16;1.40;;;1.30;;
6985;SDS011;3533;51.246;6.850;2023-03-16T08:17:42;1.40;;;1.30;;
6985;SDS011;3533;51.246;6.850;2023-03-16T08:20:08;1.30;;;1.20;;
6985;SDS011;3533;51.246;6.850;2023-03-16T08:22:38;1.30;;;1.20;;
6985;SDS011;3533;51.246;6.850;2023-03-16T08:25:04;2.13;;;1.83;;
6985;SDS011;3533;51.246;6.850;2023-03-16T08:27:34;1.20;;;1.10;;
6985;SDS011;3533;51.246;6.850;2023-03-16T08:30:01;1.30;;;1.20;;
6985;SDS011;3533;51.246;6.850;2023-03-16T08:32:31;1.40;;;1.30;;
6985;SDS011;3533;51.246;6.850;2023-03-16T08:34:57;1.20;;;1.10;;
6985;SDS011;3533;51.246;6.850;2023-03-16T08:37:24;1.77;;;1.60;;
6985;SDS011;3533;51.246;6.850;2023-03-16T08:39:51;1.30;;;1.20;;
6985;SDS011;3533;51.246;6.850;2023-03-16T08:42:17;1.60;;;1.50;;
6985;SDS011;3533;51.246;6.850;2023-03-16T08:44:43;1.77;;;1.20;;
6985;SDS011;3533;51.246;6.850;2023-03-16T08:47:09;1.47;;;1.37;;
6985;SDS011;3533;51.246;6.850;2023-03-16T08:49:36;1.30;;;1.20;;
6985;SDS011;3533;51.246;6.850;2023-03-16T08:52:02;1.40;;;1.30;;
6985;SDS011;3533;51.246;6.850;2023-03-16T08:54:29;1.20;;;1.10;;
6985;SDS011;3533;51.246;6.850;2023-03-16T08:56:56;1.20;;;1.10;;
6985;SDS011;3533;51.246;6.850;2023-03-16T08:59:22;1.30;;;1.20;;
6985;SDS011;3533;51.246;6.850;2023-03-16T09:01:47;1.23;;;1.10;;
6985;SDS011;3533;51.246;6.850;2023-03-16T09:04:13;1.50;;;1.40;;
6985;SDS011;3533;51.246;6.850;2023-03-16T09:06:38;1.00;;;1.00;;
6985;SDS011;3533;51.246;6.850;2023-03-16T09:09:05;1.33;;;1.23;;
6985;SDS011;3533;51.246;6.850;2023-03-16T09:11:33;3.57;;;1.47;;
6985;SDS011;3533;51.246;6.850;2023-03-16T09:13:59;1.20;;;1.10;;
6985;SDS011;3533;51.246;6.850;2023-03-16T09:16:26;1.70;;;1.30;;
6985;SDS011;3533;51.246;6.850;2023-03-16T09:18:52;1.33;;;1.23;;
6985;SDS011;3533;51.246;6.850;2023-03-16T09:21:19;1.20;;;1.10;;
6985;SDS011;3533;51.246;6.850;2023-03-16T09:23:45;1.40;;;1.30;;
6985;SDS011;3533;51.246;6.850;2023-03-16T09:26:11;1.47;;;1.37;;
6985;SDS011;3533;51.246;6.850;2023-03-16T09:28:38;1.17;;;1.07;;
6985;SDS011;3533;51.246;6.850;2023-03-16T09:31:05;1.40;;;1.23;;
6985;SDS011;3533;51.246;6.850;2023-03-16T09:33:32;1.03;;;1.03;;
6985;SDS011;3533;51.246;6.850;2023-03-16T09:35:58;1.83;;;1.30;;
6985;SDS011;3533;51.246;6.850;2023-03-16T09:38:24;1.13;;;1.03;;
6985;SDS011;3533;51.246;6.850;2023-03-16T09:43:26;1.30;;;1.20;;
6985;SDS011;3533;51.246;6.850;2023-03-16T09:48:56;1.50;;;1.07;;
6985;SDS011;3533;51.246;6.850;2023-03-16T09:54:16;1.10;;;1.00;;
6985;SDS011;3533;51.246;6.850;2023-03-16T09:56:56;1.20;;;1.10;;
6985;SDS011;3533;51.246;6.850;2023-03-16T09:59:22;1.30;;;1.20;;
6985;SDS011;3533;51.246;6.850;2023-03-16T10:02:04;1.20;;;1.10;;
6985;SDS011;3533;51.246;6.850;2023-03-16T10:07:17;1.10;;;1.00;;
6985;SDS011;3533;51.246;6.850;2023-03-16T10:09:53;1.20;;;1.10;;
6985;SDS011;3533;51.246;6.850;2023-03-16T10:12:19;1.20;;;1.10;;
6985;SDS011;3533;51.246;6.850;2023-03-16T10:14:57;1.30;;;1.13;;
6985;SDS011;3533;51.246;6.850;2023-03-16T10:17:39;1.70;;;1.40;;
6985;SDS011;3533;51.246;6.850;2023-03-16T10:20:14;1.87;;;1.10;;
6985;SDS011;3533;51.246;6.850;2023-03-16T10:22:43;1.37;;;1.27;;
6985;SDS011;3533;51.246;6.850;2023-03-16T10:27:56;1.00;;;1.00;;
6985;SDS011;3533;51.246;6.850;2023-03-16T10:30:24;1.33;;;1.17;;
6985;SDS011;3533;51.246;6.850;2023-03-16T10:32:52;1.20;;;1.10;;
6985;SDS011;3533;51.246;6.850;2023-03-16T10:38:25;1.70;;;1.20;;
6985;SDS011;3533;51.246;6.850;2023-03-16T10:40:54;1.00;;;0.90;;
6985;SDS011;3533;51.246;6.850;2023-03-16T10:43:22;0.90;;;0.90;;
6985;SDS011;3533;51.246;6.850;2023-03-16T10:45:48;1.30;;;1.20;;
6985;SDS011;3533;51.246;6.850;2023-03-16T10:48:18;1.20;;;1.10;;
6985;SDS011;3533;51.246;6.850;2023-03-16T10:50:49;1.60;;;1.20;;
6985;SDS011;3533;51.246;6.850;2023-03-16T10:53:29;0.97;;;0.97;;
6985;SDS011;3533;51.246;6.850;2023-03-16T10:55:58;1.17;;;1.07;;
6985;SDS011;3533;51.246;6.850;2023-03-16T10:58:28;1.00;;;0.90;;
6985;SDS011;3533;51.246;6.850;2023-03-16T11:00:56;1.10;;;1.00;;
6985;SDS011;3533;51.246;6.850;2023-03-16T11:06:00;2.07;;;1.00;;
6985;SDS011;3533;51.246;6.850;2023-03-16T11:08:30;0.93;;;0.90;;
6985;SDS011;3533;51.246;6.850;2023-03-16T11:11:10;1.97;;;1.00;;
6985;SDS011;3533;51.246;6.850;2023-03-16T11:13:59;1.00;;;0.90;;
6985;SDS011;3533;51.246;6.850;2023-03-16T11:16:30;1.30;;;1.20;;
6985;SDS011;3533;51.246;6.850;2023-03-16T11:19:25;1.23;;;1.00;;
6985;SDS011;3533;51.246;6.850;2023-03-16T11:29:50;1.10;;;1.00;;
6985;SDS011;3533;51.246;6.850;2023-03-16T11:32:30;0.97;;;0.97;;
6985;SDS011;3533;51.246;6.850;2023-03-16T11:34:59;1.33;;;1.00;;
6985;SDS011;3533;51.246;6.850;2023-03-16T11:37:32;0.93;;;0.90;;
6985;SDS011;3533;51.246;6.850;2023-03-16T11:43:35;1.23;;;0.80;;
6985;SDS011;3533;51.246;6.850;2023-03-16T11:46:19;1.10;;;1.00;;
6985;SDS011;3533;51.246;6.850;2023-03-16T11:51:42;0.90;;;0.90;;
6985;SDS011;3533;51.246;6.850;2023-03-16T12:16:25;1.10;;;1.00;;
6985;SDS011;3533;51.246;6.850;2023-03-16T12:19:02;1.10;;;1.00;;
6985;SDS011;3533;51.246;6.850;2023-03-16T12:21:35;0.73;;;0.73;;
6985;SDS011;3533;51.246;6.850;2023-03-16T12:24:05;0.87;;;0.83;;
6985;SDS011;3533;51.246;6.850;2023-03-16T12:26:39;1.00;;;0.90;;
6985;SDS011;3533;51.246;6.850;2023-03-16T12:29:20;1.00;;;0.90;;
6985;SDS011;3533;51.246;6.850;2023-03-16T12:34:35;1.07;;;0.90;;
6985;SDS011;3533;51.246;6.850;2023-03-16T12:39:56;0.80;;;0.80;;
6985;SDS011;3533;51.246;6.850;2023-03-16T12:45:02;0.83;;;0.77;;
6985;SDS011;3533;51.246;6.850;2023-03-16T12:50:15;1.00;;;0.90;;
6985;SDS011;3533;51.246;6.850;2023-03-16T12:52:44;1.00;;;0.90;;
6985;SDS011;3533;51.246;6.850;2023-03-16T12:55:16;1.10;;;0.80;;
6985;SDS011;3533;51.246;6.850;2023-03-16T12:57:43;0.83;;;0.83;;
6985;SDS011;3533;51.246;6.850;2023-03-16T13:00:12;0.80;;;0.80;;
6985;SDS011;3533;51.246;6.850;2023-03-16T13:02:49;1.00;;;0.90;;
6985;SDS011;3533;51.246;6.850;2023-03-16T13:05:26;1.10;;;1.00;;
6985;SDS011;3533;51.246;6.850;2023-03-16T13:08:15;0.97;;;0.97;;
6985;SDS011;3533;51.246;6.850;2023-03-16T13:10:58;1.50;;;0.93;;
6985;SDS011;3533;51.246;6.850;2023-03-16T13:13:27;1.20;;;1.10;;
6985;SDS011;3533;51.246;6.850;2023-03-16T13:16:06;0.90;;;0.90;;
6985;SDS011;3533;51.246;6.850;2023-03-16T13:18:42;1.30;;;0.90;;
6985;SDS011;3533;51.246;6.850;2023-03-16T13:26:54;1.00;;;0.90;;
6985;SDS011;3533;51.246;6.850;2023-03-16T13:29:29;0.90;;;0.90;;
6985;SDS011;3533;51.246;6.850;2023-03-16T13:31:57;1.10;;;1.00;;
6985;SDS011;3533;51.246;6.850;2023-03-16T13:34:30;1.00;;;0.90;;
6985;SDS011;3533;51.246;6.850;2023-03-16T13:37:12;0.73;;;0.73;;
6985;SDS011;3533;51.246;6.850;2023-03-16T13:39:39;0.80;;;0.80;;
6985;SDS011;3533;51.246;6.850;2023-03-16T13:42:15;1.23;;;1.13;;
6985;SDS011;3533;51.246;6.850;2023-03-16T13:44:42;1.13;;;1.07;;
6985;SDS011;3533;51.246;6.850;2023-03-16T13:47:15;0.80;;;0.80;;
6985;SDS011;3533;51.246;6.850;2023-03-16T13:49:42;1.70;;;0.80;;
6985;SDS011;3533;51.246;6.850;2023-03-16T13:52:13;0.90;;;0.90;;
6985;SDS011;3533;51.246;6.850;2023-03-16T13:55:05;1.53;;;1.43;;
6985;SDS011;3533;51.246;6.850;2023-03-16T13:57:40;1.47;;;0.80;;
6985;SDS011;3533;51.246;6.850;2023-03-16T14:02:44;1.00;;;0.80;;
6985;SDS011;3533;51.246;6.850;2023-03-16T14:05:16;1.00;;;1.00;;
6985;SDS011;3533;51.246;6.850;2023-03-16T14:07:47;0.70;;;0.70;;
6985;SDS011;3533;51.246;6.850;2023-03-16T14:10:15;0.73;;;0.73;;
6985;SDS011;3533;51.246;6.850;2023-03-16T14:12:51;0.80;;;0.80;;
6985;SDS011;3533;51.246;6.850;2023-03-16T14:15:21;0.90;;;0.90;;
6985;SDS011;3533;51.246;6.850;2023-03-16T14:17:50;1.13;;;1.13;;
6985;SDS011;3533;51.246;6.850;2023-03-16T14:20:17;0.90;;;0.80;;
6985;SDS011;3533;51.246;6.850;2023-03-16T14:22:50;0.80;;;0.80;;
6985;SDS011;3533;51.246;6.850;2023-03-16T14:25:18;1.10;;;1.00;;
6985;SDS011;3533;51.246;6.850;2023-03-16T14:27:47;0.80;;;0.80;;
6985;SDS011;3533;51.246;6.850;2023-03-16T14:30:22;1.00;;;1.00;;
6985;SDS011;3533;51.246;6.850;2023-03-16T14:35:24;0.80;;;0.80;;
6985;SDS011;3533;51.246;6.850;2023-03-16T14:37:51;0.90;;;0.77;;
6985;SDS011;3533;51.246;6.850;2023-03-16T14:42:47;0.87;;;0.87;;
6985;SDS011;3533;51.246;6.850;2023-03-16T14:45:14;0.97;;;0.80;;
6985;SDS011;3533;51.246;6.850;2023-03-16T14:47:41;0.77;;;0.77;;
6985;SDS011;3533;51.246;6.850;2023-03-16T14:50:16;0.73;;;0.70;;
6985;SDS011;3533;51.246;6.850;2023-03-16T14:52:46;1.47;;;0.90;;
6985;SDS011;3533;51.246;6.850;2023-03-16T14:55:15;0.73;;;0.73;;
6985;SDS011;3533;51.246;6.850;2023-03-16T14:57:43;0.80;;;0.80;;
6985;SDS011;3533;51.246;6.850;2023-03-16T15:00:09;0.90;;;0.90;;
6985;SDS011;3533;51.246;6.850;2023-03-16T15:02:37;0.80;;;0.80;;
6985;SDS011;3533;51.246;6.850;2023-03-16T15:05:05;1.17;;;1.00;;
6985;SDS011;3533;51.246;6.850;2023-03-16T15:07:36;1.00;;;0.77;;
6985;SDS011;3533;51.246;6.850;2023-03-16T15:12:39;0.80;;;0.70;;
6985;SDS011;3533;51.246;6.850;2023-03-16T15:15:16;0.77;;;0.77;;
6985;SDS011;3533;51.246;6.850;2023-03-16T15:17:46;0.73;;;0.73;;
6985;SDS011;3533;51.246;6.850;2023-03-16T15:20:16;0.87;;;0.87;;
6985;SDS011;3533;51.246;6.850;2023-03-16T15:22:43;0.90;;;0.80;;
6985;SDS011;3533;51.246;6.850;2023-03-16T15:25:17;0.90;;;0.90;;
6985;SDS011;3533;51.246;6.850;2023-03-16T15:27:44;9.63;;;1.50;;
6985;SDS011;3533;51.246;6.850;2023-03-16T15:30:15;1.43;;;0.80;;
6985;SDS011;3533;51.246;6.850;2023-03-16T15:32:50;0.80;;;0.80;;
6985;SDS011;3533;51.246;6.850;2023-03-16T15:35:16;1.33;;;1.20;;
6985;SDS011;3533;51.246;6.850;2023-03-16T15:37:43;0.80;;;0.77;;
6985;SDS011;3533;51.246;6.850;2023-03-16T15:40:22;0.70;;;0.70;;
6985;SDS011;3533;51.246;6.850;2023-03-16T15:42:52;0.73;;;0.73;;
6985;SDS011;3533;51.246;6.850;2023-03-16T15:45:19;1.00;;;0.90;;
6985;SDS011;3533;51.246;6.850;2023-03-16T15:47:46;0.90;;;0.90;;
6985;SDS011;3533;51.246;6.850;2023-03-16T15:50:14;0.80;;;0.77;;
6985;SDS011;3533;51.246;6.850;2023-03-16T15:52:42;0.70;;;0.70;;
6985;SDS011;3533;51.246;6.850;2023-03-16T15:55:20;0.90;;;0.90;;
6985;SDS011;3533;51.246;6.850;2023-03-16T15:57:50;0.80;;;0.80;;
6985;SDS011;3533;51.246;6.850;2023-03-16T16:00:27;0.80;;;0.80;;
6985;SDS011;3533;51.246;6.850;2023-03-16T16:03:00;0.80;;;0.80;;
6985;SDS011;3533;51.246;6.850;2023-03-16T16:05:27;1.00;;;0.83;;
6985;SDS011;3533;51.246;6.850;2023-03-16T16:07:54;0.80;;;0.80;;
6985;SDS011;3533;51.246;6.850;2023-03-16T16:10:21;0.90;;;0.90;;
6985;SDS011;3533;51.246;6.850;2023-03-16T16:12:48;1.00;;;0.90;;
6985;SDS011;3533;51.246;6.850;2023-03-16T16:17:52;0.80;;;0.80;;
6985;SDS011;3533;51.246;6.850;2023-03-16T16:20:22;0.87;;;0.87;;
6985;SDS011;3533;51.246;6.850;2023-03-16T16:22:51;1.93;;;0.80;;
6985;SDS011;3533;51.246;6.850;2023-03-16T16:25:18;0.80;;;0.73;;
6985;SDS011;3533;51.246;6.850;2023-03-16T16:27:47;0.80;;;0.80;;
6985;SDS011;3533;51.246;6.850;2023-03-16T16:30:16;1.37;;;0.83;;
6985;SDS011;3533;51.246;6.850;2023-03-16T16:32:43;1.23;;;1.13;;
6985;SDS011;3533;51.246;6.850;2023-03-16T16:35:15;0.80;;;0.70;;
6985;SDS011;3533;51.246;6.850;2023-03-16T16:37:43;1.20;;;0.80;;
6985;SDS011;3533;51.246;6.850;2023-03-16T16:40:13;0.90;;;0.90;;
6985;SDS011;3533;51.246;6.850;2023-03-16T16:42:50;1.00;;;0.90;;
6985;SDS011;3533;51.246;6.850;2023-03-16T16:45:21;0.90;;;0.70;;
6985;SDS011;3533;51.246;6.850;2023-03-16T16:47:49;0.80;;;0.80;;
6985;SDS011;3533;51.246;6.850;2023-03-16T16:50:20;1.03;;;0.93;;
6985;SDS011;3533;51.246;6.850;2023-03-16T16:52:49;1.10;;;0.90;;
6985;SDS011;3533;51.246;6.850;2023-03-16T16:55:15;0.80;;;0.80;;
6985;SDS011;3533;51.246;6.850;2023-03-16T16:57:41;1.00;;;0.90;;
6985;SDS011;3533;51.246;6.850;2023-03-16T17:02:47;1.40;;;0.90;;